sensor_id;sensor_type;location;lat;lon;timestamp;temperature;humidity
4693;DHT22;11710;48.024;16.296;2022-10-15T00:00:46;11.00;99.90
4693;DHT22;11710;48.024;16.296;2022-10-15T00:03:13;11.00;99.90
4693;DHT22;11710;48.024;16.296;2022-10-15T00:05:41;11.00;99.90
4693;DHT22;11710;48.024;16.296;2022-10-15T00:08:09;10.90;99.90
4693;DHT22;11710;48.024;16.296;2022-10-15T00:10:36;10.90;99.90
4693;DHT22;11710;48.024;16.296;2022-10-15T00:13:04;10.90;99.90
4693;DHT22;11710;48.024;16.296;2022-10-15T00:15:31;10.90;99.90
4693;DHT22;11710;48.024;16.296;2022-10-15T00:17:59;10.90;99.90
4693;DHT22;11710;48.024;16.296;2022-10-15T00:20:26;11.00;99.90
4693;DHT22;11710;48.024;16.296;2022-10-15T00:22:56;11.00;99.90
4693;DHT22;11710;48.024;16.296;2022-10-15T00:25:23;11.00;99.90
4693;DHT22;11710;48.024;16.296;2022-10-15T00:27:50;11.00;99.90
4693;DHT22;11710;48.024;16.296;2022-10-15T00:30:20;11.00;99.90
4693;DHT22;11710;48.024;16.296;2022-10-15T00:32:47;11.00;99.90
4693;DHT22;11710;48.024;16.296;2022-10-15T00:35:15;11.00;99.90
4693;DHT22;11710;48.024;16.296;2022-10-15T00:37:42;11.00;99.90
4693;DHT22;11710;48.024;16.296;2022-10-15T00:40:12;11.00;99.90
4693;DHT22;11710;48.024;16.296;2022-10-15T00:42:44;11.00;99.90
4693;DHT22;11710;48.024;16.296;2022-10-15T00:45:14;11.10;99.90
4693;DHT22;11710;48.024;16.296;2022-10-15T00:47:46;11.10;99.90
4693;DHT22;11710;48.024;16.296;2022-10-15T00:50:19;11.20;99.90
4693;DHT22;11710;48.024;16.296;2022-10-15T00:52:56;11.20;99.90
4693;DHT22;11710;48.024;16.296;2022-10-15T00:55:27;11.30;99.90
4693;DHT22;11710;48.024;16.296;2022-10-15T00:57:59;11.30;99.90
4693;DHT22;11710;48.024;16.296;2022-10-15T01:00:27;11.40;99.90
4693;DHT22;11710;48.024;16.296;2022-10-15T01:02:58;11.40;99.90
4693;DHT22;11710;48.024;16.296;2022-10-15T01:05:29;11.30;99.90
4693;DHT22;11710;48.024;16.296;2022-10-15T01:07:56;11.30;99.90
4693;DHT22;11710;48.024;16.296;2022-10-15T01:10:25;11.30;99.90
4693;DHT22;11710;48.024;16.296;2022-10-15T01:13:04;11.30;99.90
4693;DHT22;11710;48.024;16.296;2022-10-15T01:15:39;11.30;99.90
4693;DHT22;11710;48.024;16.296;2022-10-15T01:18:13;11.30;99.90
4693;DHT22;11710;48.024;16.296;2022-10-15T01:20:51;11.30;99.90
4693;DHT22;11710;48.024;16.296;2022-10-15T01:23:46;11.40;99.90
4693;DHT22;11710;48.024;16.296;2022-10-15T01:26:31;11.30;99.90
4693;DHT22;11710;48.024;16.296;2022-10-15T01:29:19;11.40;99.90
4693;DHT22;11710;48.024;16.296;2022-10-15T01:32:00;11.40;99.90
4693;DHT22;11710;48.024;16.296;2022-10-15T01:34:33;11.40;99.90
4693;DHT22;11710;48.024;16.296;2022-10-15T01:37:07;11.50;99.90
4693;DHT22;11710;48.024;16.296;2022-10-15T01:39:40;11.50;99.90
4693;DHT22;11710;48.024;16.296;2022-10-15T01:42:18;11.60;99.90
4693;DHT22;11710;48.024;16.296;2022-10-15T01:44:55;11.60;99.90
4693;DHT22;11710;48.024;16.296;2022-10-15T01:47:32;11.60;99.90
4693;DHT22;11710;48.024;16.296;2022-10-15T01:50:02;11.60;99.90
4693;DHT22;11710;48.024;16.296;2022-10-15T01:52:32;11.70;99.90
4693;DHT22;11710;48.024;16.296;2022-10-15T01:55:04;11.70;99.90
4693;DHT22;11710;48.024;16.296;2022-10-15T01:57:33;11.80;99.90
4693;DHT22;11710;48.024;16.296;2022-10-15T02:00:00;11.90;99.90
4693;DHT22;11710;48.024;16.296;2022-10-15T02:02:30;11.90;99.90
4693;DHT22;11710;48.024;16.296;2022-10-15T02:04:57;11.90;99.90
4693;DHT22;11710;48.024;16.296;2022-10-15T02:07:33;12.00;99.90
4693;DHT22;11710;48.024;16.296;2022-10-15T02:10:08;12.00;99.90
4693;DHT22;11710;48.024;16.296;2022-10-15T02:12:46;12.10;99.90
4693;DHT22;11710;48.024;16.296;2022-10-15T02:15:22;12.10;99.90
4693;DHT22;11710;48.024;16.296;2022-10-15T02:17:58;12.10;99.90
4693;DHT22;11710;48.024;16.296;2022-10-15T02:20:31;12.20;99.90
4693;DHT22;11710;48.024;16.296;2022-10-15T02:23:05;12.20;99.90
4693;DHT22;11710;48.024;16.296;2022-10-15T02:25:34;12.30;99.90
4693;DHT22;11710;48.024;16.296;2022-10-15T02:28:08;12.30;99.90
4693;DHT22;11710;48.024;16.296;2022-10-15T02:30:38;12.30;99.90
4693;DHT22;11710;48.024;16.296;2022-10-15T02:33:08;12.40;99.90
4693;DHT22;11710;48.024;16.296;2022-10-15T02:35:36;12.40;99.90
4693;DHT22;11710;48.024;16.296;2022-10-15T02:38:06;12.40;99.90
4693;DHT22;11710;48.024;16.296;2022-10-15T02:40:34;12.50;99.90
4693;DHT22;11710;48.024;16.296;2022-10-15T02:43:04;12.50;99.90
4693;DHT22;11710;48.024;16.296;2022-10-15T02:45:31;12.50;99.90
4693;DHT22;11710;48.024;16.296;2022-10-15T02:47:58;12.50;99.90
4693;DHT22;11710;48.024;16.296;2022-10-15T02:50:26;12.50;99.90
4693;DHT22;11710;48.024;16.296;2022-10-15T02:52:53;12.50;99.90
4693;DHT22;11710;48.024;16.296;2022-10-15T02:55:20;12.50;99.90
4693;DHT22;11710;48.024;16.296;2022-10-15T02:57:47;12.50;99.90
4693;DHT22;11710;48.024;16.296;2022-10-15T03:00:14;12.50;99.90
4693;DHT22;11710;48.024;16.296;2022-10-15T03:02:43;12.40;99.90
4693;DHT22;11710;48.024;16.296;2022-10-15T03:05:10;12.40;99.90
4693;DHT22;11710;48.024;16.296;2022-10-15T03:07:41;12.40;99.90
4693;DHT22;11710;48.024;16.296;2022-10-15T03:10:11;12.40;99.90
4693;DHT22;11710;48.024;16.296;2022-10-15T03:12:38;12.40;99.90
4693;DHT22;11710;48.024;16.296;2022-10-15T03:15:06;12.40;99.90
4693;DHT22;11710;48.024;16.296;2022-10-15T03:17:33;12.40;99.90
4693;DHT22;11710;48.024;16.296;2022-10-15T03:20:00;12.40;99.90
4693;DHT22;11710;48.024;16.296;2022-10-15T03:22:27;12.30;99.90
4693;DHT22;11710;48.024;16.296;2022-10-15T03:24:59;12.30;99.90
4693;DHT22;11710;48.024;16.296;2022-10-15T03:27:26;12.30;99.90
4693;DHT22;11710;48.024;16.296;2022-10-15T03:29:53;12.30;99.90
4693;DHT22;11710;48.024;16.296;2022-10-15T03:32:20;12.30;99.90
4693;DHT22;11710;48.024;16.296;2022-10-15T03:34:47;12.40;99.90
4693;DHT22;11710;48.024;16.296;2022-10-15T03:37:14;12.40;99.90
4693;DHT22;11710;48.024;16.296;2022-10-15T03:39:41;12.40;99.90
4693;DHT22;11710;48.024;16.296;2022-10-15T03:42:09;12.40;99.90
4693;DHT22;11710;48.024;16.296;2022-10-15T03:44:36;12.40;99.90
4693;DHT22;11710;48.024;16.296;2022-10-15T03:47:03;12.40;99.90
4693;DHT22;11710;48.024;16.296;2022-10-15T03:49:30;12.30;99.90
4693;DHT22;11710;48.024;16.296;2022-10-15T03:51:57;12.30;99.90
4693;DHT22;11710;48.024;16.296;2022-10-15T03:54:26;12.30;99.90
4693;DHT22;11710;48.024;16.296;2022-10-15T03:56:53;12.30;99.90
4693;DHT22;11710;48.024;16.296;2022-10-15T03:59:22;12.30;99.90
4693;DHT22;11710;48.024;16.296;2022-10-15T04:01:49;12.30;99.90
4693;DHT22;11710;48.024;16.296;2022-10-15T04:04:16;12.40;99.90
4693;DHT22;11710;48.024;16.296;2022-10-15T04:06:42;12.40;99.90
4693;DHT22;11710;48.024;16.296;2022-10-15T04:09:12;12.40;99.90
4693;DHT22;11710;48.024;16.296;2022-10-15T04:11:40;12.40;99.90
4693;DHT22;11710;48.024;16.296;2022-10-15T04:14:07;12.40;99.90
4693;DHT22;11710;48.024;16.296;2022-10-15T04:16:35;12.40;99.90
4693;DHT22;11710;48.024;16.296;2022-10-15T04:19:02;12.50;99.90
4693;DHT22;11710;48.024;16.296;2022-10-15T04:21:29;12.50;99.90
4693;DHT22;11710;48.024;16.296;2022-10-15T04:23:56;12.50;99.90
4693;DHT22;11710;48.024;16.296;2022-10-15T04:26:23;12.60;99.90
4693;DHT22;11710;48.024;16.296;2022-10-15T04:28:51;12.60;99.90
4693;DHT22;11710;48.024;16.296;2022-10-15T04:31:20;12.70;99.90
4693;DHT22;11710;48.024;16.296;2022-10-15T04:33:48;12.70;99.90
4693;DHT22;11710;48.024;16.296;2022-10-15T04:36:15;12.70;99.90
4693;DHT22;11710;48.024;16.296;2022-10-15T04:38:42;12.80;99.90
4693;DHT22;11710;48.024;16.296;2022-10-15T04:41:12;12.80;99.90
4693;DHT22;11710;48.024;16.296;2022-10-15T04:43:39;12.80;99.90
4693;DHT22;11710;48.024;16.296;2022-10-15T04:46:07;12.90;99.90
4693;DHT22;11710;48.024;16.296;2022-10-15T04:48:35;12.90;99.90
4693;DHT22;11710;48.024;16.296;2022-10-15T04:51:05;12.90;99.90
4693;DHT22;11710;48.024;16.296;2022-10-15T04:53:32;13.00;99.90
4693;DHT22;11710;48.024;16.296;2022-10-15T04:56:01;13.00;99.90
4693;DHT22;11710;48.024;16.296;2022-10-15T04:58:29;13.10;99.90
4693;DHT22;11710;48.024;16.296;2022-10-15T05:00:59;13.20;99.90
4693;DHT22;11710;48.024;16.296;2022-10-15T05:03:26;13.20;99.90
4693;DHT22;11710;48.024;16.296;2022-10-15T05:05:58;13.20;99.90
4693;DHT22;11710;48.024;16.296;2022-10-15T05:08:26;13.20;99.90
4693;DHT22;11710;48.024;16.296;2022-10-15T05:10:53;13.30;99.90
4693;DHT22;11710;48.024;16.296;2022-10-15T05:13:20;13.30;99.90
4693;DHT22;11710;48.024;16.296;2022-10-15T05:15:47;13.30;99.90
4693;DHT22;11710;48.024;16.296;2022-10-15T05:18:14;13.30;99.90
4693;DHT22;11710;48.024;16.296;2022-10-15T05:20:41;13.40;99.90
4693;DHT22;11710;48.024;16.296;2022-10-15T05:23:07;13.40;99.90
4693;DHT22;11710;48.024;16.296;2022-10-15T05:25:36;13.40;99.90
4693;DHT22;11710;48.024;16.296;2022-10-15T05:28:03;13.50;99.90
4693;DHT22;11710;48.024;16.296;2022-10-15T05:30:30;13.50;99.90
4693;DHT22;11710;48.024;16.296;2022-10-15T05:32:57;13.60;99.90
4693;DHT22;11710;48.024;16.296;2022-10-15T05:35:24;13.60;99.90
4693;DHT22;11710;48.024;16.296;2022-10-15T05:37:51;13.60;99.90
4693;DHT22;11710;48.024;16.296;2022-10-15T05:40:18;13.70;99.90
4693;DHT22;11710;48.024;16.296;2022-10-15T05:42:51;13.70;99.90
4693;DHT22;11710;48.024;16.296;2022-10-15T05:45:18;13.70;99.90
4693;DHT22;11710;48.024;16.296;2022-10-15T05:47:45;13.70;99.90
4693;DHT22;11710;48.024;16.296;2022-10-15T05:50:12;13.80;99.90
4693;DHT22;11710;48.024;16.296;2022-10-15T05:52:39;13.80;99.90
4693;DHT22;11710;48.024;16.296;2022-10-15T05:55:10;13.80;99.90
4693;DHT22;11710;48.024;16.296;2022-10-15T05:57:37;13.80;99.90
4693;DHT22;11710;48.024;16.296;2022-10-15T06:00:07;13.80;99.90
4693;DHT22;11710;48.024;16.296;2022-10-15T06:02:34;13.80;99.90
4693;DHT22;11710;48.024;16.296;2022-10-15T06:05:01;13.80;99.90
4693;DHT22;11710;48.024;16.296;2022-10-15T06:07:28;13.90;99.90
4693;DHT22;11710;48.024;16.296;2022-10-15T06:09:56;13.90;99.90
4693;DHT22;11710;48.024;16.296;2022-10-15T06:12:23;13.90;99.90
4693;DHT22;11710;48.024;16.296;2022-10-15T06:14:50;14.00;99.90
4693;DHT22;11710;48.024;16.296;2022-10-15T06:17:18;14.00;99.90
4693;DHT22;11710;48.024;16.296;2022-10-15T06:19:45;14.00;99.90
4693;DHT22;11710;48.024;16.296;2022-10-15T06:22:12;14.10;99.90
4693;DHT22;11710;48.024;16.296;2022-10-15T06:24:39;14.10;99.90
4693;DHT22;11710;48.024;16.296;2022-10-15T06:27:06;14.20;99.90
4693;DHT22;11710;48.024;16.296;2022-10-15T06:29:34;14.20;99.90
4693;DHT22;11710;48.024;16.296;2022-10-15T06:32:01;14.30;99.90
4693;DHT22;11710;48.024;16.296;2022-10-15T06:34:29;14.40;99.90
4693;DHT22;11710;48.024;16.296;2022-10-15T06:36:56;14.50;99.90
4693;DHT22;11710;48.024;16.296;2022-10-15T06:39:25;14.60;99.90
4693;DHT22;11710;48.024;16.296;2022-10-15T06:41:52;14.60;99.90
4693;DHT22;11710;48.024;16.296;2022-10-15T06:44:19;14.70;99.90
4693;DHT22;11710;48.024;16.296;2022-10-15T06:46:48;14.80;99.90
4693;DHT22;11710;48.024;16.296;2022-10-15T06:49:15;14.90;99.90
4693;DHT22;11710;48.024;16.296;2022-10-15T06:51:43;14.90;99.90
4693;DHT22;11710;48.024;16.296;2022-10-15T06:54:10;15.00;99.90
4693;DHT22;11710;48.024;16.296;2022-10-15T06:56:37;15.10;99.90
4693;DHT22;11710;48.024;16.296;2022-10-15T06:59:04;15.10;99.90
4693;DHT22;11710;48.024;16.296;2022-10-15T07:01:31;15.20;99.90
4693;DHT22;11710;48.024;16.296;2022-10-15T07:03:58;15.30;99.90
4693;DHT22;11710;48.024;16.296;2022-10-15T07:06:25;15.30;99.90
4693;DHT22;11710;48.024;16.296;2022-10-15T07:08:53;15.30;99.90
4693;DHT22;11710;48.024;16.296;2022-10-15T07:11:20;15.40;99.90
4693;DHT22;11710;48.024;16.296;2022-10-15T07:13:47;15.40;99.90
4693;DHT22;11710;48.024;16.296;2022-10-15T07:16:14;15.50;99.90
4693;DHT22;11710;48.024;16.296;2022-10-15T07:18:41;15.50;99.90
4693;DHT22;11710;48.024;16.296;2022-10-15T07:21:08;15.50;99.90
4693;DHT22;11710;48.024;16.296;2022-10-15T07:23:35;15.50;99.90
4693;DHT22;11710;48.024;16.296;2022-10-15T07:26:04;15.60;99.90
4693;DHT22;11710;48.024;16.296;2022-10-15T07:28:31;15.60;99.90
4693;DHT22;11710;48.024;16.296;2022-10-15T07:31:00;15.60;99.90
4693;DHT22;11710;48.024;16.296;2022-10-15T07:33:27;15.70;99.90
4693;DHT22;11710;48.024;16.296;2022-10-15T07:35:54;15.70;99.90
4693;DHT22;11710;48.024;16.296;2022-10-15T07:38:21;15.70;99.90
4693;DHT22;11710;48.024;16.296;2022-10-15T07:40:48;15.80;99.90
4693;DHT22;11710;48.024;16.296;2022-10-15T07:43:16;15.80;99.90
4693;DHT22;11710;48.024;16.296;2022-10-15T07:45:46;15.90;99.90
4693;DHT22;11710;48.024;16.296;2022-10-15T07:48:13;16.00;99.90
4693;DHT22;11710;48.024;16.296;2022-10-15T07:50:40;16.10;99.90
4693;DHT22;11710;48.024;16.296;2022-10-15T07:53:07;16.20;99.90
4693;DHT22;11710;48.024;16.296;2022-10-15T07:55:37;16.30;99.90
4693;DHT22;11710;48.024;16.296;2022-10-15T07:58:04;16.30;99.90
4693;DHT22;11710;48.024;16.296;2022-10-15T08:00:34;16.40;99.90
4693;DHT22;11710;48.024;16.296;2022-10-15T08:03:01;16.40;99.90
4693;DHT22;11710;48.024;16.296;2022-10-15T08:05:28;16.50;99.90
4693;DHT22;11710;48.024;16.296;2022-10-15T08:07:55;16.50;99.90
4693;DHT22;11710;48.024;16.296;2022-10-15T08:10:22;16.50;99.90
4693;DHT22;11710;48.024;16.296;2022-10-15T08:12:49;16.40;99.90
4693;DHT22;11710;48.024;16.296;2022-10-15T08:15:15;16.40;99.90
4693;DHT22;11710;48.024;16.296;2022-10-15T08:17:46;16.40;99.90
4693;DHT22;11710;48.024;16.296;2022-10-15T08:20:13;16.40;99.90
4693;DHT22;11710;48.024;16.296;2022-10-15T08:22:40;16.40;99.90
4693;DHT22;11710;48.024;16.296;2022-10-15T08:25:08;16.40;99.90
4693;DHT22;11710;48.024;16.296;2022-10-15T08:27:35;16.40;99.90
4693;DHT22;11710;48.024;16.296;2022-10-15T08:30:03;16.40;99.90
4693;DHT22;11710;48.024;16.296;2022-10-15T08:32:30;16.40;99.90
4693;DHT22;11710;48.024;16.296;2022-10-15T08:34:58;16.40;99.90
4693;DHT22;11710;48.024;16.296;2022-10-15T08:37:25;16.50;99.90
4693;DHT22;11710;48.024;16.296;2022-10-15T08:39:52;16.60;99.90
4693;DHT22;11710;48.024;16.296;2022-10-15T08:42:21;16.60;99.90
4693;DHT22;11710;48.024;16.296;2022-10-15T08:44:55;16.70;99.90
4693;DHT22;11710;48.024;16.296;2022-10-15T08:47:29;16.80;99.90
4693;DHT22;11710;48.024;16.296;2022-10-15T08:50:01;16.90;99.90
4693;DHT22;11710;48.024;16.296;2022-10-15T08:52:39;17.00;99.90
4693;DHT22;11710;48.024;16.296;2022-10-15T08:55:11;17.10;99.90
4693;DHT22;11710;48.024;16.296;2022-10-15T08:57:43;17.10;99.90
4693;DHT22;11710;48.024;16.296;2022-10-15T09:00:16;17.10;99.90
4693;DHT22;11710;48.024;16.296;2022-10-15T09:02:49;17.20;99.90
4693;DHT22;11710;48.024;16.296;2022-10-15T09:05:27;17.20;99.90
4693;DHT22;11710;48.024;16.296;2022-10-15T09:08:01;17.30;99.90
4693;DHT22;11710;48.024;16.296;2022-10-15T09:10:35;17.30;99.90
4693;DHT22;11710;48.024;16.296;2022-10-15T09:13:10;17.40;99.90
4693;DHT22;11710;48.024;16.296;2022-10-15T09:15:46;17.40;99.90
4693;DHT22;11710;48.024;16.296;2022-10-15T09:18:18;17.50;99.90
4693;DHT22;11710;48.024;16.296;2022-10-15T09:20:48;17.50;99.90
4693;DHT22;11710;48.024;16.296;2022-10-15T09:23:19;17.50;99.90
4693;DHT22;11710;48.024;16.296;2022-10-15T09:25:52;17.50;99.90
4693;DHT22;11710;48.024;16.296;2022-10-15T09:28:24;17.50;99.90
4693;DHT22;11710;48.024;16.296;2022-10-15T09:30:55;17.60;99.90
4693;DHT22;11710;48.024;16.296;2022-10-15T09:33:32;17.60;99.90
4693;DHT22;11710;48.024;16.296;2022-10-15T09:36:10;17.60;99.90
4693;DHT22;11710;48.024;16.296;2022-10-15T09:38:50;17.70;99.90
4693;DHT22;11710;48.024;16.296;2022-10-15T09:41:27;17.70;99.90
4693;DHT22;11710;48.024;16.296;2022-10-15T09:43:56;17.80;99.90
4693;DHT22;11710;48.024;16.296;2022-10-15T09:46:25;17.80;99.90
4693;DHT22;11710;48.024;16.296;2022-10-15T09:49:01;17.90;99.90
4693;DHT22;11710;48.024;16.296;2022-10-15T09:51:34;17.90;99.90
4693;DHT22;11710;48.024;16.296;2022-10-15T09:54:08;17.90;99.90
4693;DHT22;11710;48.024;16.296;2022-10-15T09:56:44;18.00;99.90
4693;DHT22;11710;48.024;16.296;2022-10-15T09:59:15;18.00;99.90
4693;DHT22;11710;48.024;16.296;2022-10-15T10:01:56;18.00;99.90
4693;DHT22;11710;48.024;16.296;2022-10-15T10:04:26;18.00;99.90
4693;DHT22;11710;48.024;16.296;2022-10-15T10:06:56;18.10;99.90
4693;DHT22;11710;48.024;16.296;2022-10-15T10:09:28;18.20;99.90
4693;DHT22;11710;48.024;16.296;2022-10-15T10:12:00;18.20;99.90
4693;DHT22;11710;48.024;16.296;2022-10-15T10:14:30;18.30;99.90
4693;DHT22;11710;48.024;16.296;2022-10-15T10:17:14;18.30;99.90
4693;DHT22;11710;48.024;16.296;2022-10-15T10:20:00;18.20;99.90
4693;DHT22;11710;48.024;16.296;2022-10-15T10:22:37;18.20;99.90
4693;DHT22;11710;48.024;16.296;2022-10-15T10:25:26;18.10;99.90
4693;DHT22;11710;48.024;16.296;2022-10-15T10:27:55;18.00;99.90
4693;DHT22;11710;48.024;16.296;2022-10-15T10:30:22;17.70;99.90
4693;DHT22;11710;48.024;16.296;2022-10-15T10:32:54;17.40;99.90
4693;DHT22;11710;48.024;16.296;2022-10-15T10:35:23;17.30;99.90
4693;DHT22;11710;48.024;16.296;2022-10-15T10:37:53;17.10;99.90
4693;DHT22;11710;48.024;16.296;2022-10-15T10:40:23;17.00;99.90
4693;DHT22;11710;48.024;16.296;2022-10-15T10:43:09;16.90;99.90
4693;DHT22;11710;48.024;16.296;2022-10-15T10:45:36;17.00;99.90
4693;DHT22;11710;48.024;16.296;2022-10-15T10:48:17;16.90;99.90
4693;DHT22;11710;48.024;16.296;2022-10-15T10:50:45;16.90;99.90
4693;DHT22;11710;48.024;16.296;2022-10-15T10:53:23;16.90;99.90
4693;DHT22;11710;48.024;16.296;2022-10-15T10:55:51;16.90;99.90
4693;DHT22;11710;48.024;16.296;2022-10-15T10:58:22;16.90;99.90
4693;DHT22;11710;48.024;16.296;2022-10-15T11:00:51;16.80;99.90
4693;DHT22;11710;48.024;16.296;2022-10-15T11:03:26;16.80;99.90
4693;DHT22;11710;48.024;16.296;2022-10-15T11:06:14;16.80;99.90
4693;DHT22;11710;48.024;16.296;2022-10-15T11:08:55;16.80;99.90
4693;DHT22;11710;48.024;16.296;2022-10-15T11:11:30;16.80;99.90
4693;DHT22;11710;48.024;16.296;2022-10-15T11:14:04;16.80;99.90
4693;DHT22;11710;48.024;16.296;2022-10-15T11:16:41;16.70;99.90
4693;DHT22;11710;48.024;16.296;2022-10-15T11:19:20;16.70;99.90
4693;DHT22;11710;48.024;16.296;2022-10-15T11:22:00;16.70;99.90
4693;DHT22;11710;48.024;16.296;2022-10-15T11:24:36;16.70;99.90
4693;DHT22;11710;48.024;16.296;2022-10-15T11:27:20;16.60;99.90
4693;DHT22;11710;48.024;16.296;2022-10-15T11:29:57;16.60;99.90
4693;DHT22;11710;48.024;16.296;2022-10-15T11:32:37;16.60;99.90
4693;DHT22;11710;48.024;16.296;2022-10-15T11:35:20;16.60;99.90
4693;DHT22;11710;48.024;16.296;2022-10-15T11:38:03;16.70;99.90
4693;DHT22;11710;48.024;16.296;2022-10-15T11:40:44;16.70;99.90
4693;DHT22;11710;48.024;16.296;2022-10-15T11:43:27;16.70;99.90
4693;DHT22;11710;48.024;16.296;2022-10-15T11:46:08;16.70;99.90
4693;DHT22;11710;48.024;16.296;2022-10-15T11:48:50;16.70;99.90
4693;DHT22;11710;48.024;16.296;2022-10-15T11:51:27;16.70;99.90
4693;DHT22;11710;48.024;16.296;2022-10-15T11:54:22;16.70;99.90
4693;DHT22;11710;48.024;16.296;2022-10-15T11:56:55;16.70;99.90
4693;DHT22;11710;48.024;16.296;2022-10-15T11:59:33;16.80;99.90
4693;DHT22;11710;48.024;16.296;2022-10-15T12:02:06;16.80;99.90
4693;DHT22;11710;48.024;16.296;2022-10-15T12:04:39;16.90;99.90
4693;DHT22;11710;48.024;16.296;2022-10-15T12:07:15;16.90;99.90
4693;DHT22;11710;48.024;16.296;2022-10-15T12:09:46;17.00;99.90
4693;DHT22;11710;48.024;16.296;2022-10-15T12:12:24;17.10;99.90
4693;DHT22;11710;48.024;16.296;2022-10-15T12:15:13;17.20;99.90
4693;DHT22;11710;48.024;16.296;2022-10-15T12:17:48;17.30;99.90
4693;DHT22;11710;48.024;16.296;2022-10-15T12:20:21;17.30;99.90
4693;DHT22;11710;48.024;16.296;2022-10-15T12:22:55;17.40;99.90
4693;DHT22;11710;48.024;16.296;2022-10-15T12:25:44;17.50;99.90
4693;DHT22;11710;48.024;16.296;2022-10-15T12:28:16;17.50;99.90
4693;DHT22;11710;48.024;16.296;2022-10-15T12:30:54;17.50;99.90
4693;DHT22;11710;48.024;16.296;2022-10-15T12:33:36;17.60;99.90
4693;DHT22;11710;48.024;16.296;2022-10-15T12:36:06;17.60;99.90
4693;DHT22;11710;48.024;16.296;2022-10-15T12:38:55;17.60;99.90
4693;DHT22;11710;48.024;16.296;2022-10-15T12:41:33;17.70;99.90
4693;DHT22;11710;48.024;16.296;2022-10-15T12:44:13;17.70;99.90
4693;DHT22;11710;48.024;16.296;2022-10-15T12:46:42;17.70;99.90
4693;DHT22;11710;48.024;16.296;2022-10-15T12:49:45;17.70;99.90
4693;DHT22;11710;48.024;16.296;2022-10-15T12:55:23;17.80;99.90
4693;DHT22;11710;48.024;16.296;2022-10-15T12:57:53;17.80;99.90
4693;DHT22;11710;48.024;16.296;2022-10-15T13:00:31;17.70;99.90
4693;DHT22;11710;48.024;16.296;2022-10-15T13:06:26;17.70;99.90
4693;DHT22;11710;48.024;16.296;2022-10-15T13:09:05;17.80;99.90
4693;DHT22;11710;48.024;16.296;2022-10-15T13:11:36;17.70;99.90
4693;DHT22;11710;48.024;16.296;2022-10-15T13:14:16;17.80;99.90
4693;DHT22;11710;48.024;16.296;2022-10-15T13:16:47;17.80;99.90
4693;DHT22;11710;48.024;16.296;2022-10-15T13:19:20;17.80;99.90
4693;DHT22;11710;48.024;16.296;2022-10-15T13:21:50;17.80;99.90
4693;DHT22;11710;48.024;16.296;2022-10-15T13:24:20;17.80;99.90
4693;DHT22;11710;48.024;16.296;2022-10-15T13:26:48;17.70;99.90
4693;DHT22;11710;48.024;16.296;2022-10-15T13:29:17;17.70;99.90
4693;DHT22;11710;48.024;16.296;2022-10-15T13:31:46;17.70;99.90
4693;DHT22;11710;48.024;16.296;2022-10-15T13:34:23;17.70;99.90
4693;DHT22;11710;48.024;16.296;2022-10-15T13:36:52;17.70;99.90
4693;DHT22;11710;48.024;16.296;2022-10-15T13:39:23;17.70;99.90
4693;DHT22;11710;48.024;16.296;2022-10-15T13:41:54;17.70;99.90
4693;DHT22;11710;48.024;16.296;2022-10-15T13:44:29;17.70;99.90
4693;DHT22;11710;48.024;16.296;2022-10-15T13:46:57;17.70;99.90
4693;DHT22;11710;48.024;16.296;2022-10-15T13:49:24;17.70;99.90
4693;DHT22;11710;48.024;16.296;2022-10-15T13:51:52;17.60;99.90
4693;DHT22;11710;48.024;16.296;2022-10-15T13:54:21;17.60;99.90
4693;DHT22;11710;48.024;16.296;2022-10-15T13:56:52;17.50;99.90
4693;DHT22;11710;48.024;16.296;2022-10-15T13:59:20;17.50;99.90
4693;DHT22;11710;48.024;16.296;2022-10-15T14:01:50;17.50;99.90
4693;DHT22;11710;48.024;16.296;2022-10-15T14:04:21;17.40;99.90
4693;DHT22;11710;48.024;16.296;2022-10-15T14:06:54;17.40;99.90
4693;DHT22;11710;48.024;16.296;2022-10-15T14:09:28;17.40;99.90
4693;DHT22;11710;48.024;16.296;2022-10-15T14:11:56;17.40;99.90
4693;DHT22;11710;48.024;16.296;2022-10-15T14:14:31;17.40;99.90
4693;DHT22;11710;48.024;16.296;2022-10-15T14:17:00;17.40;99.90
4693;DHT22;11710;48.024;16.296;2022-10-15T14:19:30;17.40;99.90
4693;DHT22;11710;48.024;16.296;2022-10-15T14:21:59;17.50;99.90
4693;DHT22;11710;48.024;16.296;2022-10-15T14:24:30;17.50;99.90
4693;DHT22;11710;48.024;16.296;2022-10-15T14:27:05;17.50;99.90
4693;DHT22;11710;48.024;16.296;2022-10-15T14:29:38;17.50;99.90
4693;DHT22;11710;48.024;16.296;2022-10-15T14:32:23;17.50;99.90
4693;DHT22;11710;48.024;16.296;2022-10-15T14:34:53;17.50;99.90
4693;DHT22;11710;48.024;16.296;2022-10-15T14:37:28;17.50;99.90
4693;DHT22;11710;48.024;16.296;2022-10-15T14:40:03;17.50;99.90
4693;DHT22;11710;48.024;16.296;2022-10-15T14:42:38;17.50;99.90
4693;DHT22;11710;48.024;16.296;2022-10-15T14:45:17;17.50;99.90
4693;DHT22;11710;48.024;16.296;2022-10-15T14:47:44;17.40;99.90
4693;DHT22;11710;48.024;16.296;2022-10-15T14:50:13;17.40;99.90
4693;DHT22;11710;48.024;16.296;2022-10-15T14:52:43;17.30;99.90
4693;DHT22;11710;48.024;16.296;2022-10-15T14:55:15;17.30;99.90
4693;DHT22;11710;48.024;16.296;2022-10-15T14:57:45;17.20;99.90
4693;DHT22;11710;48.024;16.296;2022-10-15T15:00:25;17.20;99.90
4693;DHT22;11710;48.024;16.296;2022-10-15T15:02:54;17.10;99.90
4693;DHT22;11710;48.024;16.296;2022-10-15T15:05:24;17.00;99.90
4693;DHT22;11710;48.024;16.296;2022-10-15T15:07:52;17.00;99.90
4693;DHT22;11710;48.024;16.296;2022-10-15T15:10:22;16.90;99.90
4693;DHT22;11710;48.024;16.296;2022-10-15T15:12:51;16.90;99.90
4693;DHT22;11710;48.024;16.296;2022-10-15T15:15:20;16.80;99.90
4693;DHT22;11710;48.024;16.296;2022-10-15T15:17:48;16.80;99.90
4693;DHT22;11710;48.024;16.296;2022-10-15T15:20:17;16.70;99.90
4693;DHT22;11710;48.024;16.296;2022-10-15T15:22:47;16.70;99.90
4693;DHT22;11710;48.024;16.296;2022-10-15T15:25:17;16.60;99.90
4693;DHT22;11710;48.024;16.296;2022-10-15T15:27:45;16.60;99.90
4693;DHT22;11710;48.024;16.296;2022-10-15T15:30:17;16.60;99.90
4693;DHT22;11710;48.024;16.296;2022-10-15T15:32:45;16.60;99.90
4693;DHT22;11710;48.024;16.296;2022-10-15T15:35:19;16.50;99.90
4693;DHT22;11710;48.024;16.296;2022-10-15T15:37:48;16.50;99.90
4693;DHT22;11710;48.024;16.296;2022-10-15T15:40:15;16.50;99.90
4693;DHT22;11710;48.024;16.296;2022-10-15T15:42:42;16.50;99.90
4693;DHT22;11710;48.024;16.296;2022-10-15T15:45:18;16.40;99.90
4693;DHT22;11710;48.024;16.296;2022-10-15T15:47:46;16.40;99.90
4693;DHT22;11710;48.024;16.296;2022-10-15T15:50:13;16.40;99.90
4693;DHT22;11710;48.024;16.296;2022-10-15T15:52:41;16.40;99.90
4693;DHT22;11710;48.024;16.296;2022-10-15T15:55:10;16.40;99.90
4693;DHT22;11710;48.024;16.296;2022-10-15T15:57:37;16.40;99.90
4693;DHT22;11710;48.024;16.296;2022-10-15T16:00:05;16.30;99.90